N12KBM -KSAN
Flight info
| Callsign | N12KBM |
|---|---|
| Flight time | N/A |
| Altitude | VFR |
| Route | |
| Aircraft | VL3/L-VGD/C |
Departure
| Time | N/A |
|---|---|
| Airport | - |
Arrival
| Time | 2026-04-25 23:10 |
|---|---|
| Airport | San Diego International Airport (KSAN) |
| Time | Latitude | Longitude | Altitude | Speed | Heading |
|---|---|---|---|---|---|
| 2026-04-25 23:10 | 32.73423 | -117.17889 | 21 ft | 0 kts | 197° |
| 2026-04-25 23:13 | 32.73395 | -117.17924 | 21 ft | 17 kts | 230° |
| 2026-04-25 23:13 | 32.73338 | -117.17962 | 21 ft | 20 kts | 207° |
| 2026-04-25 23:14 | 32.73258 | -117.17987 | 18 ft | 0 kts | 203° |
| 2026-04-25 23:15 | 32.73248 | -117.18077 | 17 ft | 18 kts | 279° |
| 2026-04-25 23:15 | 32.73248 | -117.18189 | 18 ft | 0 kts | 202° |
| 2026-04-25 23:18 | 32.73211 | -117.18203 | 18 ft | 0 kts | 198° |
| 2026-04-25 23:18 | 32.73233 | -117.18197 | 18 ft | 4 kts | 18° |
| 2026-04-25 23:19 | 32.73248 | -117.18190 | 18 ft | 0 kts | 187° |
| 2026-04-25 23:21 | 32.73221 | -117.18201 | 18 ft | 12 kts | 180° |
| 2026-04-25 23:21 | 32.73179 | -117.18237 | 19 ft | 1 kts | 257° |
| 2026-04-25 23:21 | 32.73180 | -117.18239 | 19 ft | 0 kts | 285° |
| 2026-04-25 23:22 | 32.73238 | -117.18519 | 73 ft | 74 kts | 285° |
| 2026-04-25 23:22 | 32.73415 | -117.19143 | 400 ft | 78 kts | 279° |
| 2026-04-25 23:23 | 32.73783 | -117.20375 | 1024 ft | 90 kts | 277° |
| 2026-04-25 23:23 | 32.73924 | -117.21086 | 1272 ft | 82 kts | 285° |
| 2026-04-25 23:23 | 32.74047 | -117.21799 | 1317 ft | 97 kts | 271° |
| 2026-04-25 23:23 | 32.74109 | -117.22603 | 1400 ft | 93 kts | 273° |
| 2026-04-25 23:24 | 32.74561 | -117.23166 | 1374 ft | 117 kts | 345° |
| 2026-04-25 23:24 | 32.75080 | -117.22996 | 1362 ft | 120 kts | 36° |
| 2026-04-25 23:24 | 32.75365 | -117.21826 | 1573 ft | 111 kts | 88° |
| 2026-04-25 23:24 | 32.75376 | -117.20909 | 1715 ft | 111 kts | 94° |
| 2026-04-25 23:25 | 32.75315 | -117.19985 | 1846 ft | 111 kts | 101° |
| 2026-04-25 23:25 | 32.75220 | -117.19370 | 1913 ft | 113 kts | 107° |
| 2026-04-25 23:25 | 32.74966 | -117.18174 | 2045 ft | 114 kts | 107° |
| 2026-04-25 23:25 | 32.74817 | -117.17564 | 2086 ft | 115 kts | 111° |
| 2026-04-25 23:26 | 32.74596 | -117.16605 | 1982 ft | 122 kts | 107° |
| 2026-04-25 23:26 | 32.74413 | -117.15606 | 1697 ft | 120 kts | 106° |
| 2026-04-25 23:26 | 32.73969 | -117.14797 | 1315 ft | 113 kts | 156° |
| 2026-04-25 23:26 | 32.73273 | -117.14724 | 1198 ft | 99 kts | 190° |
| 2026-04-25 23:27 | 32.72703 | -117.15138 | 938 ft | 91 kts | 240° |
| 2026-04-25 23:27 | 32.72617 | -117.15709 | 629 ft | 67 kts | 272° |
| 2026-04-25 23:27 | 32.72736 | -117.16218 | 470 ft | 65 kts | 272° |
| 2026-04-25 23:27 | 32.72832 | -117.16732 | 352 ft | 69 kts | 277° |
| 2026-04-25 23:28 | 32.72934 | -117.17057 | 42 ft | 3 kts | 247° |
| 2026-04-25 23:28 | 32.72937 | -117.17052 | 40 ft | 2 kts | 331° |